Aviation Digital Data Service (ADDS)

Output produced by METARs form (1825 UTC 16 August 2018)
found at http://www.aviationweather.gov/adds/metars/
 
GGOV 161800Z 20008KT 9999 TS BKN014TCU FEW020CB 28/24 Q1012 NOSIG
TAF GGOV 161700Z 1618/1718 23005KT 9999 TS SCT014 FEW020CB 
     TEMPO 1620/1701 4000 TSRA SCT005 BKN014 FEW020CB 
     BECMG 1702/1704 NSW BKN014